Terminal Aerodrome Forecast
Issued by NWS

Home | Current Version | Previous Version | Text Only | Print | Product List | Glossary On
Versions: 1 2 3 4 5 6 7 8 9 10 11 12 13 14 15 16 17 18 19 20 21 22 23 24
000
FTUS43 KDDC 040540
TAFGCK
TAF
KGCK 040540Z 0406/0506 04015KT P6SM OVC040
     FM040900 03015G22KT 4SM -SN BR OVC015
      TEMPO 0411/0415 2SM -SN BR SCT008 BKN015
     FM041600 03012G20KT P6SM -SN OVC015=

USA.gov is the U.S. government's official web portal to all federal, state and local government web resources and services.